Rhinelander Oneida County Airport Rhinelander US
ICAO: KRHI
IATA: RHI
Category: Medium
Scheduled Services: Yes

Elevation: 1624 ft
TransAlt. 18000 ft.

Airport Communications:
ASOS:126.825
MINNEAPOLIS CNTR:133.65
GREEN BAY RDO:109.2
CTAF/UNICOM:123

KRHI Zoom In..

If you have problems with the map follow the link
https://www.worldairports.se/pages/airport.php?
ICAO=KRHI

Runways:

(A) RW 09 length 6799 ft width 150 ft
ILS 111.30 / hdg 91

(B) RW 15 length 5201 ft width 100 ft
---- / hdg 150

(C) RW 27 length 6799 ft width 150 ft
---- / hdg 271

(D) RW 33 length 5201 ft width 100 ft
---- / hdg 330

Location; KRHI
Day. 05 / Time. 22.22 Zulu
* Altimeter: 29.85
* Temperature: -02° c. -28.4°f.
* Wind from: 140° Speed 06 kn.
Dewpoint: -04° c.
Visibility: 10 Statute Miles.
Clouds: Overcast 1400 ft.

KRHI 052222Z AUTO 14006KT 10SM OVC014 M02/M04 A2985 RMK AO2 T10171044


Wind From 140°
Speed 06 kn.

 
 
jpsmedia worldairports.se 2019   terms of use